Time;durP1;ratioP1;P1;durP2;ratioP2;P2;SDS_P1;SDS_P2;PMS_P1;PMS_P2;Temp;Humidity;BMP_temperature;BMP_pressure;BME280_temperature;BME280_humidity;BME280_pressure;Samples;Min_cycle;Max_cycle;Signal;HPM_P1;HPM_P2
2024/01/25 00:00:19;;;;;;;16.10;3.63;;;11.00;99.90;;;;;;4981425;28;20560;-67
2024/01/25 00:02:46;;;;;;;35.97;5.37;;;11.00;99.90;;;;;;4993728;28;21086;-70
2024/01/25 00:05:14;;;;;;;32.30;5.27;;;11.00;99.90;;;;;;5008519;28;20532;-68
2024/01/25 00:07:47;;;;;;;18.37;4.50;;;11.00;99.90;;;;;;4981009;28;20475;-67
2024/01/25 00:10:15;;;;;;;16.87;5.13;;;;;;;;;;4968897;28;20485;-69
2024/01/25 00:12:42;;;;;;;21.67;5.23;;;10.90;99.90;;;;;;4982972;28;20516;-68
2024/01/25 00:15:10;;;;;;;18.77;5.80;;;10.90;99.90;;;;;;4981582;28;20477;-69
2024/01/25 00:17:38;;;;;;;23.97;5.17;;;10.90;99.90;;;;;;4995188;28;20477;-68
2024/01/25 00:20:06;;;;;;;21.33;6.60;;;10.90;99.90;;;;;;4996006;28;20505;-69
2024/01/25 00:22:34;;;;;;;27.33;4.70;;;10.90;99.90;;;;;;5001750;28;20490;-70
2024/01/25 00:25:01;;;;;;;32.60;5.77;;;11.00;99.90;;;;;;4981607;28;20546;-69
2024/01/25 00:27:29;;;;;;;17.73;5.10;;;11.00;99.90;;;;;;4988445;28;20569;-68
2024/01/25 00:29:56;;;;;;;19.77;4.73;;;11.00;99.90;;;;;;4993226;28;20572;-67
2024/01/25 00:32:23;;;;;;;19.80;5.67;;;10.90;99.90;;;;;;4982006;28;20575;-71
2024/01/25 00:34:50;;;;;;;24.50;4.70;;;10.80;99.90;;;;;;4993399;28;20552;-71
2024/01/25 00:37:18;;;;;;;27.63;5.13;;;;;;;;;;4991198;28;21047;-68
2024/01/25 00:39:46;;;;;;;30.93;5.03;;;10.90;99.90;;;;;;4996929;28;20773;-68
2024/01/25 00:42:15;;;;;;;26.13;4.90;;;10.80;99.90;;;;;;4995173;28;20492;-69
2024/01/25 00:44:42;;;;;;;21.80;5.60;;;10.90;99.90;;;;;;4991545;28;20497;-68
2024/01/25 00:47:10;;;;;;;16.30;4.53;;;10.90;99.90;;;;;;4988814;28;20527;-69
2024/01/25 00:49:38;;;;;;;28.93;7.80;;;10.90;99.90;;;;;;4995332;28;20488;-69
2024/01/25 00:52:05;;;;;;;27.43;6.97;;;10.90;99.90;;;;;;4982846;28;20804;-67
2024/01/25 00:54:33;;;;;;;21.93;5.60;;;10.90;99.90;;;;;;5005597;28;20891;-71
2024/01/25 00:57:02;;;;;;;33.80;6.30;;;10.90;99.90;;;;;;4989767;28;20566;-65
2024/01/25 00:59:29;;;;;;;28.47;6.90;;;10.90;99.90;;;;;;4992131;28;20593;-66
2024/01/25 01:01:57;;;;;;;16.73;5.87;;;11.00;99.90;;;;;;4999029;28;20532;-65
2024/01/25 01:04:25;;;;;;;31.70;6.03;;;10.90;99.90;;;;;;4994153;28;20533;-65
2024/01/25 01:06:52;;;;;;;24.30;5.90;;;10.90;99.90;;;;;;4965903;28;20493;-66
2024/01/25 01:09:19;;;;;;;21.43;5.10;;;10.90;99.90;;;;;;4992417;28;20798;-67
2024/01/25 01:11:46;;;;;;;30.33;5.10;;;10.90;99.90;;;;;;5003395;28;20482;-65
2024/01/25 01:14:16;;;;;;;24.03;4.90;;;10.90;99.90;;;;;;4958637;28;20637;-65
2024/01/25 01:16:44;;;;;;;37.27;6.80;;;10.90;99.90;;;;;;4988949;28;20493;-65
2024/01/25 01:19:10;;;;;;;18.20;4.30;;;11.00;99.90;;;;;;4996770;28;20509;-65
2024/01/25 01:21:38;;;;;;;36.13;7.47;;;11.00;99.90;;;;;;4978974;28;20898;-66
2024/01/25 01:24:05;;;;;;;19.37;5.33;;;11.00;99.90;;;;;;4990999;28;20485;-65
2024/01/25 01:26:35;;;;;;;28.40;4.13;;;11.00;99.90;;;;;;4998892;28;20538;-66
2024/01/25 01:29:01;;;;;;;23.37;5.60;;;11.00;99.90;;;;;;4971533;28;20477;-65
2024/01/25 01:31:30;;;;;;;41.97;6.67;;;11.00;99.90;;;;;;4989292;28;20653;-65
2024/01/25 01:33:59;;;;;;;31.67;6.77;;;11.00;99.90;;;;;;4992790;28;20571;-65
2024/01/25 01:36:26;;;;;;;31.53;4.57;;;11.10;99.90;;;;;;4996796;28;20581;-65
2024/01/25 01:38:52;;;;;;;18.67;5.10;;;11.10;99.90;;;;;;4973553;28;20530;-64
2024/01/25 01:41:19;;;;;;;26.43;6.57;;;11.00;99.90;;;;;;4982112;28;20488;-65
2024/01/25 01:43:46;;;;;;;14.70;3.37;;;11.00;99.90;;;;;;4979015;28;20481;-65
2024/01/25 01:46:21;;;;;;;19.57;5.80;;;11.00;99.90;;;;;;4975185;28;20507;-66
2024/01/25 01:48:50;;;;;;;22.23;5.20;;;11.00;99.90;;;;;;4991453;28;20493;-64
2024/01/25 01:51:17;;;;;;;26.40;5.60;;;11.00;99.90;;;;;;4992727;28;20571;-64
2024/01/25 01:53:44;;;;;;;29.80;6.53;;;11.00;99.90;;;;;;4978647;28;20747;-65
2024/01/25 01:56:11;;;;;;;21.60;5.03;;;11.00;99.90;;;;;;4996193;28;20493;-64
2024/01/25 01:58:40;;;;;;;29.90;5.90;;;11.00;99.90;;;;;;4991328;28;20488;-64
2024/01/25 02:01:07;;;;;;;29.80;5.17;;;11.10;99.90;;;;;;4978201;28;20540;-65
2024/01/25 02:03:33;;;;;;;25.63;5.50;;;11.00;99.90;;;;;;4994962;28;20481;-65
2024/01/25 02:06:03;;;;;;;43.80;6.40;;;10.90;99.90;;;;;;4986274;28;21078;-64
2024/01/25 02:08:30;;;;;;;21.90;5.97;;;10.90;99.90;;;;;;4986666;28;20492;-65
2024/01/25 02:10:57;;;;;;;34.90;6.23;;;11.00;99.90;;;;;;4987677;28;20489;-64
2024/01/25 02:13:24;;;;;;;36.83;6.47;;;10.90;99.90;;;;;;4974011;28;20507;-64
2024/01/25 02:15:53;;;;;;;27.20;5.40;;;10.90;99.90;;;;;;4980884;28;20470;-65
2024/01/25 02:18:20;;;;;;;25.80;6.07;;;11.00;99.90;;;;;;4977924;28;20501;-65
2024/01/25 02:20:47;;;;;;;28.03;5.87;;;11.00;99.90;;;;;;4977655;28;20481;-64
2024/01/25 02:23:15;;;;;;;28.17;4.80;;;11.10;99.90;;;;;;4974453;28;20913;-64
2024/01/25 02:25:42;;;;;;;24.17;4.73;;;11.10;99.90;;;;;;5007555;28;20572;-66
2024/01/25 02:28:09;;;;;;;36.30;5.93;;;11.10;99.90;;;;;;4986535;28;20469;-64
2024/01/25 02:30:36;;;;;;;26.13;5.20;;;11.10;99.90;;;;;;5002211;28;20552;-64
2024/01/25 02:33:03;;;;;;;27.03;5.37;;;11.10;99.90;;;;;;4994222;28;20486;-65
2024/01/25 02:35:29;;;;;;;21.00;5.40;;;11.10;99.90;;;;;;4983970;28;20492;-65
2024/01/25 02:37:56;;;;;;;30.77;8.13;;;11.10;99.90;;;;;;4965912;28;20490;-65
2024/01/25 02:40:25;;;;;;;34.03;6.87;;;11.10;99.90;;;;;;4993822;28;20593;-66
2024/01/25 02:42:52;;;;;;;20.50;4.90;;;11.10;99.90;;;;;;4991430;28;20463;-65
2024/01/25 02:45:18;;;;;;;28.30;5.83;;;11.10;99.90;;;;;;4985379;28;20876;-65
2024/01/25 02:47:45;;;;;;;27.43;4.90;;;11.00;99.90;;;;;;4991250;28;20519;-64
2024/01/25 02:50:12;;;;;;;30.37;6.70;;;11.00;99.90;;;;;;4980049;28;20492;-65
2024/01/25 02:52:39;;;;;;;20.23;6.07;;;11.00;99.90;;;;;;4994712;28;20777;-65
2024/01/25 02:55:06;;;;;;;31.93;8.07;;;11.10;99.90;;;;;;5001575;28;20966;-64
2024/01/25 02:57:35;;;;;;;30.40;5.47;;;11.10;99.90;;;;;;4992452;28;20920;-65
2024/01/25 03:00:02;;;;;;;20.83;4.77;;;11.10;99.90;;;;;;4992948;28;20477;-65
2024/01/25 03:02:29;;;;;;;56.50;7.10;;;11.10;99.90;;;;;;4989724;28;20580;-65
2024/01/25 03:04:56;;;;;;;27.00;6.80;;;11.10;99.90;;;;;;4992326;28;20886;-65
2024/01/25 03:07:23;;;;;;;20.87;5.13;;;11.10;99.90;;;;;;4998063;28;20501;-64
2024/01/25 03:09:50;;;;;;;20.33;5.13;;;11.10;99.90;;;;;;4994986;28;20481;-64
2024/01/25 03:12:17;;;;;;;31.27;4.97;;;11.00;99.90;;;;;;4986619;28;20937;-65
2024/01/25 03:14:46;;;;;;;43.90;5.80;;;;;;;;;;5001167;28;20478;-65
2024/01/25 03:17:13;;;;;;;27.50;5.47;;;11.00;99.90;;;;;;4990138;28;21149;-65
2024/01/25 03:19:39;;;;;;;22.27;5.53;;;11.10;99.90;;;;;;4998248;28;20524;-65
2024/01/25 03:22:06;;;;;;;40.23;5.50;;;11.00;99.90;;;;;;4983742;28;20488;-65
2024/01/25 03:24:33;;;;;;;20.50;6.90;;;11.10;99.90;;;;;;4984759;28;20477;-64
2024/01/25 03:27:00;;;;;;;28.53;6.27;;;11.10;99.90;;;;;;4991854;28;20477;-65
2024/01/25 03:29:27;;;;;;;18.07;7.03;;;11.00;99.90;;;;;;4996517;28;20512;-66
2024/01/25 03:31:55;;;;;;;26.37;5.90;;;11.00;99.90;;;;;;4999099;28;21047;-65
2024/01/25 03:34:22;;;;;;;35.07;5.70;;;11.00;99.90;;;;;;4999385;28;20506;-65
2024/01/25 03:36:50;;;;;;;25.80;6.73;;;11.00;99.90;;;;;;5003658;28;20487;-65
2024/01/25 03:39:17;;;;;;;29.40;6.87;;;11.10;99.90;;;;;;5001391;28;20477;-64
2024/01/25 03:41:44;;;;;;;31.93;6.63;;;11.10;99.90;;;;;;4999162;28;20477;-65
2024/01/25 03:44:11;;;;;;;26.97;5.47;;;11.10;99.90;;;;;;4997900;28;20489;-65
2024/01/25 03:46:37;;;;;;;20.90;6.60;;;11.10;99.90;;;;;;4963432;28;20973;-65
2024/01/25 03:49:06;;;;;;;28.87;6.17;;;;;;;;;;4992536;28;20544;-64
2024/01/25 03:51:32;;;;;;;31.27;5.87;;;11.10;99.90;;;;;;4992799;28;20713;-65
2024/01/25 03:53:59;;;;;;;34.87;6.20;;;11.10;99.90;;;;;;4998175;28;20653;-65
2024/01/25 03:56:26;;;;;;;36.57;6.07;;;11.00;99.90;;;;;;4997793;28;20249;-65
2024/01/25 03:58:53;;;;;;;34.37;6.00;;;11.00;99.90;;;;;;4994933;28;20493;-64
2024/01/25 04:01:20;;;;;;;24.13;5.67;;;11.00;99.90;;;;;;4990906;28;20743;-65
2024/01/25 04:03:47;;;;;;;23.10;5.60;;;;;;;;;;5003864;28;20543;-65
2024/01/25 04:06:16;;;;;;;32.13;5.83;;;11.00;99.90;;;;;;4999433;28;20488;-65
2024/01/25 04:08:43;;;;;;;29.63;6.37;;;10.90;99.90;;;;;;5001585;28;20474;-65
2024/01/25 04:11:10;;;;;;;31.43;7.17;;;;;;;;;;4999265;28;22795;-65
2024/01/25 04:13:37;;;;;;;34.17;5.57;;;10.90;99.90;;;;;;5001887;28;20559;-65
2024/01/25 04:16:05;;;;;;;16.27;4.87;;;10.90;99.90;;;;;;4997026;28;20473;-65
2024/01/25 04:18:31;;;;;;;18.50;5.43;;;10.90;99.90;;;;;;4998696;28;21025;-65
2024/01/25 04:20:58;;;;;;;25.00;5.27;;;10.80;99.90;;;;;;4998842;28;20501;-65
2024/01/25 04:23:27;;;;;;;22.57;5.23;;;;;;;;;;4994043;28;20481;-65
2024/01/25 04:25:55;;;;;;;33.70;4.70;;;10.80;99.90;;;;;;4995833;28;20903;-66
2024/01/25 04:28:24;;;;;;;24.63;5.67;;;10.80;99.90;;;;;;4997257;28;20968;-65
2024/01/25 04:30:51;;;;;;;38.73;6.47;;;10.80;99.90;;;;;;5000946;28;20500;-65
2024/01/25 04:33:18;;;;;;;23.03;6.90;;;10.80;99.90;;;;;;5000373;28;20531;-65
2024/01/25 04:35:45;;;;;;;32.83;7.43;;;10.80;99.90;;;;;;4999457;28;20477;-65
2024/01/25 04:38:12;;;;;;;33.70;5.40;;;10.70;99.90;;;;;;4991681;28;20488;-65
2024/01/25 04:40:40;;;;;;;37.13;6.80;;;10.70;99.90;;;;;;5003929;28;20903;-65
2024/01/25 04:43:07;;;;;;;30.63;5.73;;;10.70;99.90;;;;;;4973434;28;20517;-65
2024/01/25 04:45:34;;;;;;;27.63;5.50;;;10.50;99.90;;;;;;4993585;28;20536;-65
2024/01/25 04:48:01;;;;;;;30.43;5.70;;;10.40;99.90;;;;;;4941607;28;20492;-65
2024/01/25 04:50:28;;;;;;;26.43;6.00;;;10.20;99.90;;;;;;4989349;28;20849;-65
2024/01/25 04:52:55;;;;;;;27.17;6.23;;;10.10;99.90;;;;;;5005747;28;20515;-65
2024/01/25 04:55:22;;;;;;;27.30;6.63;;;10.10;99.90;;;;;;4989132;28;20838;-65
2024/01/25 04:57:53;;;;;;;21.27;4.77;;;10.00;99.90;;;;;;4991932;28;20539;-65
2024/01/25 05:00:21;;;;;;;26.23;5.03;;;9.90;99.90;;;;;;4994044;28;20591;-65
2024/01/25 05:02:51;;;;;;;20.27;6.93;;;9.90;99.90;;;;;;4999025;28;20470;-64
2024/01/25 05:05:18;;;;;;;24.77;5.87;;;9.80;99.90;;;;;;4986901;28;21101;-65
2024/01/25 05:07:45;;;;;;;23.50;6.63;;;9.70;99.90;;;;;;4996060;28;21058;-65
2024/01/25 05:10:13;;;;;;;17.57;4.90;;;9.50;99.90;;;;;;4984528;28;20838;-65
2024/01/25 05:12:39;;;;;;;27.23;6.03;;;9.50;99.90;;;;;;4968846;28;20559;-65
2024/01/25 05:15:09;;;;;;;27.87;5.30;;;9.60;99.90;;;;;;4986456;28;20946;-65
2024/01/25 05:17:35;;;;;;;37.17;6.50;;;9.60;99.90;;;;;;5000975;28;20898;-66
2024/01/25 05:20:02;;;;;;;28.90;5.50;;;9.60;99.90;;;;;;4983319;28;20530;-65
2024/01/25 05:22:29;;;;;;;29.80;7.50;;;9.50;99.90;;;;;;5000634;28;20963;-64
2024/01/25 05:24:56;;;;;;;27.53;5.23;;;9.50;99.90;;;;;;4972140;28;20563;-65
2024/01/25 05:27:23;;;;;;;25.33;5.00;;;9.50;99.90;;;;;;5000222;28;20567;-65
2024/01/25 05:29:50;;;;;;;21.93;6.27;;;9.50;99.90;;;;;;4967450;28;20485;-65
2024/01/25 05:32:18;;;;;;;39.70;10.07;;;9.60;99.90;;;;;;4985079;28;21019;-65
2024/01/25 05:34:45;;;;;;;23.63;8.00;;;9.50;99.90;;;;;;5004344;28;20576;-65
2024/01/25 05:37:12;;;;;;;30.33;6.63;;;9.30;99.90;;;;;;4972653;28;20547;-65
2024/01/25 05:39:39;;;;;;;37.70;5.00;;;9.30;99.90;;;;;;4955158;28;20976;-65
2024/01/25 05:42:06;;;;;;;24.43;5.03;;;9.30;99.90;;;;;;4984901;28;20488;-65
2024/01/25 05:44:33;;;;;;;23.40;5.40;;;9.30;99.90;;;;;;5001819;28;20490;-65
2024/01/25 05:47:00;;;;;;;30.47;5.43;;;9.30;99.90;;;;;;4996751;28;20531;-65
2024/01/25 05:49:28;;;;;;;33.67;5.80;;;9.30;99.90;;;;;;4974947;28;20481;-65
2024/01/25 05:51:55;;;;;;;31.33;5.60;;;9.20;99.90;;;;;;4988230;28;20524;-65
2024/01/25 05:54:22;;;;;;;38.37;5.70;;;9.10;99.90;;;;;;4990196;28;20493;-67
2024/01/25 05:56:49;;;;;;;25.23;4.90;;;8.90;99.90;;;;;;4980662;28;20552;-65
2024/01/25 05:59:15;;;;;;;32.00;6.30;;;8.80;99.90;;;;;;4986295;28;20612;-65
2024/01/25 06:01:42;;;;;;;30.13;5.10;;;8.80;99.90;;;;;;5008821;28;20655;-65
2024/01/25 06:04:09;;;;;;;28.63;6.67;;;8.60;99.90;;;;;;4958551;28;20498;-65
2024/01/25 06:06:38;;;;;;;18.13;5.90;;;8.50;99.90;;;;;;4994718;28;20508;-64
2024/01/25 06:09:06;;;;;;;29.57;5.87;;;8.00;99.90;;;;;;4988087;28;20860;-64
2024/01/25 06:11:35;;;;;;;22.20;5.10;;;;;;;;;;4986790;28;20558;-65
2024/01/25 06:14:02;;;;;;;50.43;6.73;;;7.90;99.90;;;;;;4992048;28;20490;-64
2024/01/25 06:16:29;;;;;;;24.43;6.17;;;7.80;99.90;;;;;;4991334;28;20536;-65
2024/01/25 06:18:55;;;;;;;15.33;4.00;;;7.90;99.90;;;;;;5001503;28;20473;-65
2024/01/25 06:21:22;;;;;;;25.03;6.10;;;8.00;99.90;;;;;;4995603;28;20486;-65
2024/01/25 06:23:51;;;;;;;26.97;8.13;;;8.00;99.90;;;;;;5011002;28;20564;-64
2024/01/25 06:26:17;;;;;;;22.10;4.20;;;8.00;99.90;;;;;;4979531;28;20783;-65
2024/01/25 06:28:45;;;;;;;22.57;6.13;;;7.90;99.90;;;;;;4997636;28;20478;-65
2024/01/25 06:31:12;;;;;;;19.97;4.30;;;7.80;99.90;;;;;;4995379;28;21009;-65
2024/01/25 06:33:39;;;;;;;15.90;4.73;;;7.70;99.90;;;;;;4999230;28;20489;-65
2024/01/25 06:36:07;;;;;;;17.93;5.50;;;7.60;99.90;;;;;;4995364;28;20481;-65
2024/01/25 06:38:33;;;;;;;22.40;6.13;;;7.50;99.90;;;;;;4980070;28;20572;-65
2024/01/25 06:41:02;;;;;;;13.40;4.60;;;7.40;99.90;;;;;;4997522;28;20512;-64
2024/01/25 06:43:29;;;;;;;36.97;6.10;;;7.30;99.90;;;;;;4983454;28;20484;-64
2024/01/25 06:45:56;;;;;;;25.60;7.17;;;7.30;99.90;;;;;;5000569;28;20469;-65
2024/01/25 06:48:23;;;;;;;34.67;6.00;;;7.20;99.90;;;;;;5000129;28;20620;-64
2024/01/25 06:50:50;;;;;;;20.93;5.90;;;7.20;99.90;;;;;;5001254;28;20492;-69
2024/01/25 06:53:17;;;;;;;26.70;5.57;;;7.10;99.90;;;;;;5001696;28;20559;-68
2024/01/25 06:55:44;;;;;;;20.97;4.40;;;6.90;99.90;;;;;;5001486;28;20493;-69
2024/01/25 06:58:13;;;;;;;35.17;5.47;;;6.90;99.90;;;;;;4999891;28;20654;-69
2024/01/25 07:00:42;;;;;;;23.77;5.80;;;6.80;99.90;;;;;;5006633;28;20478;-69
2024/01/25 07:03:09;;;;;;;21.03;5.10;;;6.80;99.90;;;;;;4986909;28;20870;-67
2024/01/25 07:05:36;;;;;;;19.30;4.27;;;6.80;99.90;;;;;;4997638;28;20488;-69
2024/01/25 07:08:04;;;;;;;26.50;4.53;;;6.90;99.90;;;;;;4987857;28;20481;-69
2024/01/25 07:10:31;;;;;;;24.83;4.27;;;6.90;99.90;;;;;;4985381;28;20583;-69
2024/01/25 07:12:58;;;;;;;30.70;4.90;;;6.80;99.90;;;;;;4993876;28;21054;-68
2024/01/25 07:15:26;;;;;;;29.57;7.07;;;6.80;99.90;;;;;;4980348;28;20482;-69
2024/01/25 07:17:53;;;;;;;47.87;6.33;;;6.60;99.90;;;;;;5003155;28;20556;-69
2024/01/25 07:20:20;;;;;;;22.83;3.50;;;6.50;99.90;;;;;;5008342;28;20493;-69
2024/01/25 07:22:47;;;;;;;46.70;5.57;;;6.40;99.90;;;;;;4982313;28;20492;-68
2024/01/25 07:25:14;;;;;;;23.70;4.47;;;6.40;99.90;;;;;;4980362;28;20497;-69
2024/01/25 07:27:44;;;;;;;17.67;4.63;;;6.40;99.90;;;;;;5008360;28;20480;-68
2024/01/25 07:30:12;;;;;;;35.50;5.57;;;6.30;99.90;;;;;;5001020;28;20503;-68
2024/01/25 07:32:42;;;;;;;23.93;5.07;;;6.20;99.90;;;;;;4995438;28;21020;-69
2024/01/25 07:35:09;;;;;;;23.20;4.67;;;6.20;99.90;;;;;;4950845;28;20506;-67
2024/01/25 07:37:36;;;;;;;37.13;4.60;;;6.10;99.90;;;;;;4997282;28;20817;-70
2024/01/25 07:40:04;;;;;;;17.40;3.70;;;6.00;99.90;;;;;;4981883;28;20493;-67
2024/01/25 07:42:31;;;;;;;20.17;3.67;;;6.00;99.90;;;;;;4998471;28;21009;-68
2024/01/25 07:44:59;;;;;;;19.00;4.40;;;5.70;99.90;;;;;;4982398;28;21069;-70
2024/01/25 07:47:25;;;;;;;18.50;4.37;;;5.50;99.90;;;;;;4984522;28;21022;-69
2024/01/25 07:49:54;;;;;;;25.77;4.37;;;5.30;99.90;;;;;;4999695;28;20485;-69
2024/01/25 07:52:21;;;;;;;29.63;5.83;;;5.10;99.90;;;;;;4994338;28;20983;-64
2024/01/25 07:54:48;;;;;;;18.70;5.30;;;;;;;;;;4992730;28;20566;-64
2024/01/25 07:57:15;;;;;;;50.47;7.17;;;5.20;99.90;;;;;;4988747;28;20535;-63
2024/01/25 07:59:42;;;;;;;17.10;6.37;;;5.30;99.90;;;;;;4997194;28;20486;-64
2024/01/25 08:02:09;;;;;;;21.50;6.13;;;5.60;99.90;;;;;;4994850;28;20542;-65
2024/01/25 08:04:39;;;;;;;34.73;8.20;;;5.80;99.90;;;;;;5001671;28;21348;-65
2024/01/25 08:07:08;;;;;;;24.37;7.10;;;6.00;99.90;;;;;;5000213;28;20546;-65
2024/01/25 08:09:35;;;;;;;33.97;6.53;;;6.20;99.90;;;;;;4970774;28;20595;-64
2024/01/25 08:12:02;;;;;;;17.20;5.77;;;6.60;99.90;;;;;;5006762;28;21740;-64
2024/01/25 08:14:29;;;;;;;19.17;6.27;;;6.90;99.90;;;;;;4990862;28;20954;-64
2024/01/25 08:16:56;;;;;;;20.70;5.77;;;7.20;99.90;;;;;;4995409;28;20806;-65
2024/01/25 08:19:23;;;;;;;29.03;7.00;;;8.20;99.90;;;;;;4991366;28;20920;-65
2024/01/25 08:21:50;;;;;;;26.03;6.73;;;8.70;99.90;;;;;;4979756;28;20514;-64
2024/01/25 08:24:18;;;;;;;23.50;6.80;;;9.00;99.90;;;;;;4993017;28;20920;-64
2024/01/25 08:26:45;;;;;;;32.07;6.90;;;9.90;99.90;;;;;;4978758;28;20619;-65
2024/01/25 08:29:12;;;;;;;19.10;6.37;;;10.20;99.90;;;;;;4978865;28;20535;-65
2024/01/25 08:31:39;;;;;;;44.10;7.93;;;11.00;99.90;;;;;;5001713;28;20486;-64
2024/01/25 08:34:06;;;;;;;10.57;4.97;;;11.20;99.90;;;;;;4995140;28;20481;-65
2024/01/25 08:36:33;;;;;;;27.37;6.30;;;11.20;99.90;;;;;;5005009;28;20559;-65
2024/01/25 08:39:00;;;;;;;31.43;5.47;;;11.20;99.90;;;;;;4993258;28;20919;-65
2024/01/25 08:41:28;;;;;;;27.13;4.67;;;11.70;99.90;;;;;;5001024;28;21463;-65
2024/01/25 08:43:55;;;;;;;22.23;5.80;;;11.70;99.90;;;;;;5002302;28;20576;-65
2024/01/25 08:46:22;;;;;;;25.53;5.83;;;11.00;99.90;;;;;;4975346;28;20543;-64
2024/01/25 08:48:49;;;;;;;19.53;5.63;;;10.60;99.90;;;;;;4997792;28;21148;-65
2024/01/25 08:51:16;;;;;;;26.43;6.20;;;10.50;99.90;;;;;;4994848;28;20492;-65
2024/01/25 08:53:43;;;;;;;19.63;6.50;;;10.80;99.90;;;;;;4987821;28;20998;-65
2024/01/25 08:56:09;;;;;;;29.27;6.07;;;10.70;99.90;;;;;;4996391;28;20492;-64
2024/01/25 08:58:38;;;;;;;26.07;6.10;;;10.60;99.90;;;;;;5011456;28;21000;-64
2024/01/25 09:01:05;;;;;;;25.30;5.47;;;10.50;99.90;;;;;;4995699;28;20543;-65
2024/01/25 09:03:32;;;;;;;31.50;5.67;;;10.50;99.90;;;;;;4985459;28;20492;-65
2024/01/25 09:06:04;;;;;;;49.63;7.10;;;10.40;99.90;;;;;;5001507;28;20551;-65
2024/01/25 09:08:32;;;;;;;18.63;6.67;;;10.40;99.90;;;;;;4985409;28;20482;-65
2024/01/25 09:11:00;;;;;;;25.87;5.77;;;10.40;99.90;;;;;;4987710;28;20500;-64
2024/01/25 09:13:26;;;;;;;28.43;6.20;;;10.50;99.90;;;;;;4994224;28;20490;-65
2024/01/25 09:15:55;;;;;;;31.73;6.20;;;10.70;99.90;;;;;;4996448;28;20485;-64
2024/01/25 09:18:21;;;;;;;24.00;5.43;;;10.70;99.90;;;;;;4920075;28;20497;-65
2024/01/25 09:20:49;;;;;;;22.33;6.10;;;10.60;99.90;;;;;;4992097;28;20787;-65
2024/01/25 09:23:16;;;;;;;27.20;5.90;;;10.60;99.90;;;;;;4995393;28;20599;-64
2024/01/25 09:25:44;;;;;;;24.27;5.13;;;10.60;99.90;;;;;;4981751;28;21172;-64
2024/01/25 09:28:12;;;;;;;26.17;5.73;;;10.60;99.90;;;;;;4992877;28;20838;-65
2024/01/25 09:30:40;;;;;;;19.73;4.90;;;10.60;99.90;;;;;;4987087;28;20489;-65
2024/01/25 09:33:08;;;;;;;14.67;5.00;;;10.70;99.90;;;;;;4995205;28;20488;-65
2024/01/25 09:35:35;;;;;;;35.63;6.90;;;11.00;99.90;;;;;;4978731;28;20499;-65
2024/01/25 09:38:02;;;;;;;17.30;5.07;;;11.00;99.90;;;;;;4978568;28;20567;-64
2024/01/25 09:40:29;;;;;;;26.93;5.07;;;11.20;99.90;;;;;;4990983;28;20662;-65
2024/01/25 09:42:56;;;;;;;14.00;5.67;;;11.30;99.90;;;;;;4995369;28;20845;-64
2024/01/25 09:45:25;;;;;;;26.40;6.30;;;11.30;99.90;;;;;;4981055;28;21137;-65
2024/01/25 09:47:52;;;;;;;30.33;5.80;;;11.40;99.90;;;;;;4964553;28;20486;-63
2024/01/25 09:50:21;;;;;;;20.90;5.67;;;11.40;99.90;;;;;;4977636;28;20485;-65
2024/01/25 09:52:55;;;;;;;23.20;5.90;;;11.40;99.90;;;;;;4992545;28;20485;-65
2024/01/25 09:55:26;;;;;;;17.00;4.60;;;11.30;99.90;;;;;;4964022;28;20546;-64
2024/01/25 09:57:55;;;;;;;28.30;4.50;;;11.30;99.90;;;;;;4988958;28;20481;-65
2024/01/25 10:00:22;;;;;;;32.37;5.23;;;11.30;99.90;;;;;;5000181;28;20544;-64
2024/01/25 10:02:50;;;;;;;24.70;6.50;;;11.20;99.90;;;;;;4994159;28;20477;-64
2024/01/25 10:05:21;;;;;;;20.90;6.23;;;11.30;99.90;;;;;;4986258;28;20904;-65
2024/01/25 10:07:48;;;;;;;42.37;7.13;;;11.20;99.90;;;;;;4976963;28;20532;-65
2024/01/25 10:10:15;;;;;;;31.67;5.80;;;11.20;99.90;;;;;;4992716;28;20488;-65
2024/01/25 10:12:43;;;;;;;33.17;6.67;;;11.20;99.90;;;;;;4968052;28;20533;-68
2024/01/25 10:15:10;;;;;;;36.07;6.00;;;11.30;99.90;;;;;;4993596;28;20482;-67
2024/01/25 10:17:38;;;;;;;26.93;6.80;;;11.30;99.90;;;;;;4988282;28;20489;-67
2024/01/25 10:20:10;;;;;;;20.77;6.60;;;11.40;99.90;;;;;;4993295;28;20473;-67
2024/01/25 10:22:39;;;;;;;31.77;6.73;;;11.60;99.90;;;;;;4991103;28;20504;-67
2024/01/25 10:25:13;;;;;;;27.80;6.63;;;11.60;99.90;;;;;;5005533;28;20485;-70
2024/01/25 10:27:40;;;;;;;16.53;5.83;;;11.70;99.90;;;;;;4970188;28;20522;-68
2024/01/25 10:30:09;;;;;;;24.37;6.53;;;11.70;99.90;;;;;;4987746;28;20489;-69
2024/01/25 10:32:36;;;;;;;30.37;7.07;;;11.60;99.90;;;;;;4994746;28;20860;-72
2024/01/25 10:35:04;;;;;;;18.57;5.90;;;11.60;99.90;;;;;;4983352;28;20489;-66
2024/01/25 10:37:32;;;;;;;29.07;5.70;;;11.40;99.90;;;;;;5006771;28;20738;-68
2024/01/25 10:40:01;;;;;;;32.30;6.97;;;11.40;99.90;;;;;;5000465;28;20481;-69
2024/01/25 10:42:28;;;;;;;34.27;5.67;;;;;;;;;;4974459;28;20579;-68
2024/01/25 10:44:55;;;;;;;22.83;5.23;;;11.50;99.90;;;;;;4984507;28;20551;-69
2024/01/25 10:47:23;;;;;;;32.50;5.63;;;11.60;99.90;;;;;;4982591;28;21694;-67
2024/01/25 10:49:50;;;;;;;27.00;4.43;;;11.80;99.90;;;;;;4986179;28;20481;-68
2024/01/25 10:52:19;;;;;;;38.43;6.00;;;11.80;99.90;;;;;;4982905;28;21016;-70
2024/01/25 10:54:46;;;;;;;21.60;5.77;;;11.70;99.90;;;;;;4985188;28;20477;-67
2024/01/25 10:57:15;;;;;;;23.97;5.50;;;11.80;99.90;;;;;;4993146;28;20496;-67
2024/01/25 10:59:42;;;;;;;22.37;5.20;;;11.90;99.90;;;;;;4973560;28;20483;-68
2024/01/25 11:02:09;;;;;;;23.37;5.40;;;12.00;99.90;;;;;;4980781;28;20555;-69
2024/01/25 11:04:36;;;;;;;13.43;4.83;;;12.30;99.90;;;;;;4972311;28;20518;-66
2024/01/25 11:07:09;;;;;;;11.10;4.20;;;12.30;99.90;;;;;;4989129;28;20488;-70
2024/01/25 11:09:37;;;;;;;17.00;4.40;;;12.40;99.90;;;;;;4990657;28;20493;-71
2024/01/25 11:12:14;;;;;;;20.33;5.33;;;12.50;99.90;;;;;;4992457;28;20559;-68
2024/01/25 11:14:41;;;;;;;27.37;5.57;;;12.40;99.90;;;;;;4958858;28;20511;-67
2024/01/25 11:17:20;;;;;;;23.83;5.23;;;12.40;99.90;;;;;;4983230;28;20485;-68
2024/01/25 11:19:48;;;;;;;18.37;4.43;;;12.20;99.90;;;;;;4994489;28;20907;-66
2024/01/25 11:22:15;;;;;;;14.07;5.10;;;12.10;99.90;;;;;;4994711;28;21007;-64
2024/01/25 11:24:43;;;;;;;20.10;3.70;;;12.20;99.90;;;;;;4979510;28;20916;-64
2024/01/25 11:27:11;;;;;;;23.80;4.73;;;12.10;99.90;;;;;;4994678;28;20482;-65
2024/01/25 11:29:40;;;;;;;25.13;4.83;;;12.00;99.90;;;;;;4953313;28;20881;-64
2024/01/25 11:32:07;;;;;;;21.50;5.10;;;11.90;99.90;;;;;;4982512;28;20489;-65
2024/01/25 11:34:34;;;;;;;15.57;4.77;;;11.90;99.90;;;;;;4973704;28;20850;-65
2024/01/25 11:37:01;;;;;;;22.30;6.80;;;11.90;99.90;;;;;;4996530;28;20473;-65
2024/01/25 11:39:28;;;;;;;28.07;6.23;;;11.80;99.90;;;;;;4980959;28;20565;-65
2024/01/25 11:41:55;;;;;;;27.30;5.57;;;11.80;99.90;;;;;;4978964;28;20489;-65
2024/01/25 11:44:24;;;;;;;35.10;5.47;;;11.90;99.90;;;;;;4986794;28;20516;-65
2024/01/25 11:46:55;;;;;;;28.27;5.37;;;12.00;99.90;;;;;;4988940;28;20476;-64
2024/01/25 11:49:24;;;;;;;34.60;5.87;;;12.10;99.90;;;;;;4984089;28;20489;-65
2024/01/25 11:51:51;;;;;;;20.50;5.97;;;;;;;;;;4987882;28;20500;-65
2024/01/25 11:54:19;;;;;;;25.17;5.60;;;12.10;99.90;;;;;;4984583;28;20818;-66
2024/01/25 11:56:47;;;;;;;23.10;6.43;;;12.10;99.90;;;;;;4984920;28;20539;-65
2024/01/25 11:59:14;;;;;;;18.60;6.10;;;;;;;;;;4980084;28;20544;-65
2024/01/25 12:01:42;;;;;;;22.73;5.37;;;12.10;99.90;;;;;;4979660;28;20480;-66
2024/01/25 12:04:11;;;;;;;22.40;5.30;;;12.10;99.90;;;;;;4981474;28;20870;-65
2024/01/25 12:06:38;;;;;;;21.17;6.00;;;12.10;99.90;;;;;;5011833;28;20930;-64
2024/01/25 12:09:09;;;;;;;17.43;5.10;;;12.10;99.90;;;;;;4991632;28;20477;-65
2024/01/25 12:11:36;;;;;;;28.60;5.67;;;12.00;99.90;;;;;;4962485;28;20901;-66
2024/01/25 12:14:03;;;;;;;12.57;4.63;;;12.00;99.90;;;;;;4995013;28;20561;-65
2024/01/25 12:16:30;;;;;;;25.07;5.97;;;12.00;99.90;;;;;;4991312;28;20492;-65
2024/01/25 12:18:57;;;;;;;29.23;4.70;;;12.00;99.90;;;;;;4995446;28;20497;-66
2024/01/25 12:21:25;;;;;;;20.07;5.37;;;12.10;99.90;;;;;;4996622;28;20490;-65
2024/01/25 12:23:52;;;;;;;18.30;4.57;;;12.10;99.90;;;;;;4988326;28;20486;-66
2024/01/25 12:26:19;;;;;;;23.67;5.77;;;12.10;99.90;;;;;;4960380;28;20531;-65
2024/01/25 12:28:49;;;;;;;42.60;5.97;;;12.10;99.90;;;;;;4994578;28;20481;-66
2024/01/25 12:31:16;;;;;;;24.57;6.47;;;;;;;;;;4976616;28;20486;-66
2024/01/25 12:33:43;;;;;;;19.50;6.40;;;11.90;99.90;;;;;;4995048;28;20908;-67
2024/01/25 12:36:10;;;;;;;28.73;7.63;;;11.80;99.90;;;;;;4989345;28;20920;-67
2024/01/25 12:38:39;;;;;;;37.80;7.83;;;11.80;99.90;;;;;;4996863;28;20684;-68
2024/01/25 12:41:06;;;;;;;24.87;6.23;;;11.60;99.90;;;;;;4988994;28;20936;-68
2024/01/25 12:43:33;;;;;;;20.93;6.60;;;11.50;99.90;;;;;;4977252;28;20545;-67